sensor_id;sensor_type;location;lat;lon;timestamp;pressure;altitude;pressure_sealevel;temperature;humidity
54806;BME280;62866;55.776;37.496;2022-09-25T00:00:18;97857.13;;;8.64;100.00
54806;BME280;62866;55.776;37.496;2022-09-25T00:02:43;97859.13;;;8.69;100.00
54806;BME280;62866;55.776;37.496;2022-09-25T00:05:09;97854.63;;;8.69;100.00
54806;BME280;62866;55.776;37.496;2022-09-25T00:07:34;97855.44;;;8.70;100.00
54806;BME280;62866;55.776;37.496;2022-09-25T00:10:00;97857.44;;;8.74;100.00
54806;BME280;62866;55.776;37.496;2022-09-25T00:12:25;97863.78;;;8.73;100.00
54806;BME280;62866;55.776;37.496;2022-09-25T00:14:51;97861.56;;;8.70;100.00
54806;BME280;62866;55.776;37.496;2022-09-25T00:17:17;97861.34;;;8.72;100.00
54806;BME280;62866;55.776;37.496;2022-09-25T00:19:42;97865.28;;;8.69;100.00
54806;BME280;62866;55.776;37.496;2022-09-25T00:22:14;97848.41;;;8.57;100.00
54806;BME280;62866;55.776;37.496;2022-09-25T00:24:40;97862.25;;;8.66;100.00
54806;BME280;62866;55.776;37.496;2022-09-25T00:27:05;97873.03;;;8.71;100.00
54806;BME280;62866;55.776;37.496;2022-09-25T00:29:34;97861.66;;;8.64;100.00
54806;BME280;62866;55.776;37.496;2022-09-25T00:32:00;97874.53;;;8.67;100.00
54806;BME280;62866;55.776;37.496;2022-09-25T00:34:26;97869.19;;;8.67;100.00
54806;BME280;62866;55.776;37.496;2022-09-25T00:36:51;97873.84;;;8.71;100.00
54806;BME280;62866;55.776;37.496;2022-09-25T00:39:17;97869.56;;;8.70;100.00
54806;BME280;62866;55.776;37.496;2022-09-25T00:41:42;97865.63;;;8.73;100.00
54806;BME280;62866;55.776;37.496;2022-09-25T00:50:20;97866.84;;;8.77;100.00
54806;BME280;62866;55.776;37.496;2022-09-25T00:52:48;97869.50;;;8.77;100.00
54806;BME280;62866;55.776;37.496;2022-09-25T00:55:15;97877.28;;;8.79;100.00
54806;BME280;62866;55.776;37.496;2022-09-25T00:57:42;97880.59;;;8.74;100.00
54806;BME280;62866;55.776;37.496;2022-09-25T01:00:11;97874.66;;;8.72;100.00
54806;BME280;62866;55.776;37.496;2022-09-25T01:02:42;97883.25;;;8.74;100.00
54806;BME280;62866;55.776;37.496;2022-09-25T01:05:18;97885.31;;;8.72;100.00
54806;BME280;62866;55.776;37.496;2022-09-25T01:07:48;97877.78;;;8.69;100.00
54806;BME280;62866;55.776;37.496;2022-09-25T01:10:15;97870.22;;;8.66;100.00
54806;BME280;62866;55.776;37.496;2022-09-25T01:12:45;97877.41;;;8.65;100.00
54806;BME280;62866;55.776;37.496;2022-09-25T01:15:15;97870.16;;;8.54;100.00
54806;BME280;62866;55.776;37.496;2022-09-25T01:17:54;97885.25;;;8.60;100.00
54806;BME280;62866;55.776;37.496;2022-09-25T01:20:31;97884.06;;;8.56;100.00
54806;BME280;62866;55.776;37.496;2022-09-25T01:23:24;97885.69;;;8.57;100.00
54806;BME280;62866;55.776;37.496;2022-09-25T01:31:46;97888.28;;;8.64;100.00
54806;BME280;62866;55.776;37.496;2022-09-25T01:34:31;97893.63;;;8.64;100.00
54806;BME280;62866;55.776;37.496;2022-09-25T01:37:09;97899.31;;;8.67;100.00
54806;BME280;62866;55.776;37.496;2022-09-25T01:39:46;97895.41;;;8.70;100.00
54806;BME280;62866;55.776;37.496;2022-09-25T01:42:30;97896.06;;;8.65;100.00
54806;BME280;62866;55.776;37.496;2022-09-25T01:45:03;97904.34;;;8.57;100.00
54806;BME280;62866;55.776;37.496;2022-09-25T01:47:34;97903.69;;;8.62;100.00
54806;BME280;62866;55.776;37.496;2022-09-25T01:50:13;97906.06;;;8.70;100.00
54806;BME280;62866;55.776;37.496;2022-09-25T01:52:51;97897.81;;;8.71;100.00
54806;BME280;62866;55.776;37.496;2022-09-25T01:55:23;97902.81;;;8.68;100.00
54806;BME280;62866;55.776;37.496;2022-09-25T01:58:17;97909.91;;;8.74;100.00
54806;BME280;62866;55.776;37.496;2022-09-25T02:00:52;97921.38;;;8.74;100.00
54806;BME280;62866;55.776;37.496;2022-09-25T02:03:24;97920.84;;;8.66;100.00
54806;BME280;62866;55.776;37.496;2022-09-25T02:05:54;97922.09;;;8.45;100.00
54806;BME280;62866;55.776;37.496;2022-09-25T02:08:25;97928.22;;;8.21;100.00
54806;BME280;62866;55.776;37.496;2022-09-25T02:10:55;97928.47;;;8.19;100.00
54806;BME280;62866;55.776;37.496;2022-09-25T02:13:25;97935.19;;;8.22;100.00
54806;BME280;62866;55.776;37.496;2022-09-25T02:15:58;97935.47;;;8.14;100.00
54806;BME280;62866;55.776;37.496;2022-09-25T02:18:27;97939.06;;;8.01;100.00
54806;BME280;62866;55.776;37.496;2022-09-25T02:24:45;97937.84;;;7.97;100.00
54806;BME280;62866;55.776;37.496;2022-09-25T02:26:52;97937.31;;;7.88;100.00
54806;BME280;62866;55.776;37.496;2022-09-25T02:29:18;97917.63;;;7.65;100.00
54806;BME280;62866;55.776;37.496;2022-09-25T02:31:48;97938.28;;;7.69;100.00
54806;BME280;62866;55.776;37.496;2022-09-25T02:34:15;97943.41;;;7.64;100.00
54806;BME280;62866;55.776;37.496;2022-09-25T02:36:41;97943.84;;;7.61;100.00
54806;BME280;62866;55.776;37.496;2022-09-25T02:39:08;97943.63;;;7.62;100.00
54806;BME280;62866;55.776;37.496;2022-09-25T02:49:25;97949.34;;;7.66;100.00
54806;BME280;62866;55.776;37.496;2022-09-25T02:52:05;97953.88;;;7.59;100.00
54806;BME280;62866;55.776;37.496;2022-09-25T02:54:58;97957.78;;;7.56;100.00
54806;BME280;62866;55.776;37.496;2022-09-25T03:00:12;97964.16;;;7.49;100.00
54806;BME280;62866;55.776;37.496;2022-09-25T03:02:38;97964.84;;;7.38;100.00
54806;BME280;62866;55.776;37.496;2022-09-25T03:05:05;97963.03;;;7.32;100.00
54806;BME280;62866;55.776;37.496;2022-09-25T03:07:32;97965.06;;;7.30;100.00
54806;BME280;62866;55.776;37.496;2022-09-25T03:10:18;97960.34;;;7.38;100.00
54806;BME280;62866;55.776;37.496;2022-09-25T03:12:44;97970.25;;;7.56;100.00
54806;BME280;62866;55.776;37.496;2022-09-25T03:15:10;97972.47;;;7.66;100.00
54806;BME280;62866;55.776;37.496;2022-09-25T03:17:37;97972.72;;;7.57;100.00
54806;BME280;62866;55.776;37.496;2022-09-25T03:20:05;97974.56;;;7.57;100.00
54806;BME280;62866;55.776;37.496;2022-09-25T03:22:31;97976.75;;;7.67;100.00
54806;BME280;62866;55.776;37.496;2022-09-25T03:24:56;97976.69;;;7.73;100.00
54806;BME280;62866;55.776;37.496;2022-09-25T03:27:22;97980.13;;;7.80;100.00
54806;BME280;62866;55.776;37.496;2022-09-25T03:29:50;97982.97;;;7.85;100.00
54806;BME280;62866;55.776;37.496;2022-09-25T03:32:15;97981.50;;;7.89;100.00
54806;BME280;62866;55.776;37.496;2022-09-25T03:34:41;97992.75;;;7.91;100.00
54806;BME280;62866;55.776;37.496;2022-09-25T03:37:06;97992.09;;;7.96;100.00
54806;BME280;62866;55.776;37.496;2022-09-25T03:39:32;97995.16;;;7.99;100.00
54806;BME280;62866;55.776;37.496;2022-09-25T03:41:57;97997.31;;;7.84;100.00
54806;BME280;62866;55.776;37.496;2022-09-25T03:44:23;97992.47;;;7.75;100.00
54806;BME280;62866;55.776;37.496;2022-09-25T03:46:50;97986.66;;;7.84;100.00
54806;BME280;62866;55.776;37.496;2022-09-25T03:49:15;97991.16;;;7.84;100.00
54806;BME280;62866;55.776;37.496;2022-09-25T03:51:41;97999.09;;;7.90;100.00
54806;BME280;62866;55.776;37.496;2022-09-25T03:54:07;97992.47;;;7.75;100.00
54806;BME280;62866;55.776;37.496;2022-09-25T03:56:32;98002.94;;;7.70;100.00
54806;BME280;62866;55.776;37.496;2022-09-25T03:58:58;98009.03;;;7.70;100.00
54806;BME280;62866;55.776;37.496;2022-09-25T04:01:24;98000.06;;;7.65;100.00
54806;BME280;62866;55.776;37.496;2022-09-25T04:03:50;98002.63;;;7.53;100.00
54806;BME280;62866;55.776;37.496;2022-09-25T04:06:18;98014.63;;;7.62;100.00
54806;BME280;62866;55.776;37.496;2022-09-25T04:08:46;98015.22;;;7.64;100.00
54806;BME280;62866;55.776;37.496;2022-09-25T04:11:12;98010.94;;;7.63;100.00
54806;BME280;62866;55.776;37.496;2022-09-25T04:13:39;98020.28;;;7.72;100.00
54806;BME280;62866;55.776;37.496;2022-09-25T04:16:09;98021.31;;;7.78;100.00
54806;BME280;62866;55.776;37.496;2022-09-25T04:18:36;98024.53;;;7.80;100.00
54806;BME280;62866;55.776;37.496;2022-09-25T04:21:04;98018.66;;;7.78;100.00
54806;BME280;62866;55.776;37.496;2022-09-25T04:23:30;98014.81;;;7.67;100.00
54806;BME280;62866;55.776;37.496;2022-09-25T04:25:56;98030.31;;;7.77;100.00
54806;BME280;62866;55.776;37.496;2022-09-25T04:28:22;98027.91;;;7.69;100.00
54806;BME280;62866;55.776;37.496;2022-09-25T04:30:48;98015.06;;;7.59;100.00
54806;BME280;62866;55.776;37.496;2022-09-25T04:33:14;98045.28;;;7.65;100.00
54806;BME280;62866;55.776;37.496;2022-09-25T04:35:59;98045.16;;;7.53;100.00
54806;BME280;62866;55.776;37.496;2022-09-25T04:38:25;98043.34;;;7.47;100.00
54806;BME280;62866;55.776;37.496;2022-09-25T04:40:51;98055.59;;;7.48;100.00
54806;BME280;62866;55.776;37.496;2022-09-25T04:43:16;98051.72;;;7.50;100.00
54806;BME280;62866;55.776;37.496;2022-09-25T04:45:42;98061.31;;;7.51;100.00
54806;BME280;62866;55.776;37.496;2022-09-25T04:48:08;98071.53;;;7.54;100.00
54806;BME280;62866;55.776;37.496;2022-09-25T04:50:33;98066.22;;;7.54;100.00
54806;BME280;62866;55.776;37.496;2022-09-25T04:52:59;98078.31;;;7.50;100.00
54806;BME280;62866;55.776;37.496;2022-09-25T04:55:26;98078.72;;;7.47;100.00
54806;BME280;62866;55.776;37.496;2022-09-25T04:57:54;98083.81;;;7.49;100.00
54806;BME280;62866;55.776;37.496;2022-09-25T05:00:20;98079.94;;;7.45;100.00
54806;BME280;62866;55.776;37.496;2022-09-25T05:02:46;98078.50;;;7.49;100.00
54806;BME280;62866;55.776;37.496;2022-09-25T05:05:12;98088.75;;;7.52;100.00
54806;BME280;62866;55.776;37.496;2022-09-25T05:07:38;98082.16;;;7.54;100.00
54806;BME280;62866;55.776;37.496;2022-09-25T05:10:05;98079.50;;;7.61;100.00
54806;BME280;62866;55.776;37.496;2022-09-25T05:12:33;98087.44;;;7.68;100.00
54806;BME280;62866;55.776;37.496;2022-09-25T05:14:59;98099.31;;;7.65;100.00
54806;BME280;62866;55.776;37.496;2022-09-25T05:17:24;98086.63;;;7.67;100.00
54806;BME280;62866;55.776;37.496;2022-09-25T05:19:50;98094.16;;;7.70;100.00
54806;BME280;62866;55.776;37.496;2022-09-25T05:22:15;98097.13;;;7.49;100.00
54806;BME280;62866;55.776;37.496;2022-09-25T05:24:41;98089.16;;;7.49;100.00
54806;BME280;62866;55.776;37.496;2022-09-25T05:27:06;98113.47;;;7.59;100.00
54806;BME280;62866;55.776;37.496;2022-09-25T05:29:32;98103.84;;;7.58;100.00
54806;BME280;62866;55.776;37.496;2022-09-25T05:31:59;98108.31;;;7.64;100.00
54806;BME280;62866;55.776;37.496;2022-09-25T05:34:25;98112.81;;;7.63;100.00
54806;BME280;62866;55.776;37.496;2022-09-25T05:36:50;98110.16;;;7.63;100.00
54806;BME280;62866;55.776;37.496;2022-09-25T05:39:16;98123.03;;;7.67;100.00
54806;BME280;62866;55.776;37.496;2022-09-25T05:41:42;98122.06;;;7.54;100.00
54806;BME280;62866;55.776;37.496;2022-09-25T05:44:07;98129.81;;;7.56;100.00
54806;BME280;62866;55.776;37.496;2022-09-25T05:46:37;98129.00;;;7.55;100.00
54806;BME280;62866;55.776;37.496;2022-09-25T05:49:03;98128.59;;;7.58;100.00
54806;BME280;62866;55.776;37.496;2022-09-25T05:51:29;98136.34;;;7.67;100.00
54806;BME280;62866;55.776;37.496;2022-09-25T05:53:55;98136.75;;;7.63;100.00
54806;BME280;62866;55.776;37.496;2022-09-25T05:56:21;98137.38;;;7.66;100.00
54806;BME280;62866;55.776;37.496;2022-09-25T05:58:49;98141.03;;;7.71;100.00
54806;BME280;62866;55.776;37.496;2022-09-25T06:01:15;98146.72;;;7.81;100.00
54806;BME280;62866;55.776;37.496;2022-09-25T06:03:41;98144.03;;;7.88;100.00
54806;BME280;62866;55.776;37.496;2022-09-25T06:06:06;98144.44;;;7.91;100.00
54806;BME280;62866;55.776;37.496;2022-09-25T06:08:33;98150.38;;;7.93;100.00
54806;BME280;62866;55.776;37.496;2022-09-25T06:11:03;98147.47;;;8.02;100.00
54806;BME280;62866;55.776;37.496;2022-09-25T06:13:29;98148.69;;;7.99;100.00
54806;BME280;62866;55.776;37.496;2022-09-25T06:15:57;98146.88;;;7.93;100.00
54806;BME280;62866;55.776;37.496;2022-09-25T06:18:23;98152.81;;;7.95;100.00
54806;BME280;62866;55.776;37.496;2022-09-25T06:20:50;98155.28;;;7.90;100.00
54806;BME280;62866;55.776;37.496;2022-09-25T06:23:16;98161.19;;;7.98;100.00
54806;BME280;62866;55.776;37.496;2022-09-25T06:25:42;98166.06;;;8.08;100.00
54806;BME280;62866;55.776;37.496;2022-09-25T06:28:09;98167.44;;;8.17;100.00
54806;BME280;62866;55.776;37.496;2022-09-25T06:30:36;98162.94;;;8.18;100.00
54806;BME280;62866;55.776;37.496;2022-09-25T06:33:08;98160.31;;;8.11;100.00
54806;BME280;62866;55.776;37.496;2022-09-25T06:35:45;98172.59;;;8.06;100.00
54806;BME280;62866;55.776;37.496;2022-09-25T06:38:13;98179.31;;;8.15;100.00
54806;BME280;62866;55.776;37.496;2022-09-25T06:40:40;98171.31;;;8.21;100.00
54806;BME280;62866;55.776;37.496;2022-09-25T06:43:09;98177.03;;;8.25;100.00
54806;BME280;62866;55.776;37.496;2022-09-25T06:45:35;98179.31;;;8.15;100.00
54806;BME280;62866;55.776;37.496;2022-09-25T06:48:04;98185.50;;;8.09;100.00
54806;BME280;62866;55.776;37.496;2022-09-25T06:50:42;98188.38;;;8.07;100.00
54806;BME280;62866;55.776;37.496;2022-09-25T06:53:09;98186.78;;;7.99;100.00
54806;BME280;62866;55.776;37.496;2022-09-25T06:55:35;98191.44;;;8.11;100.00
54806;BME280;62866;55.776;37.496;2022-09-25T06:58:03;98199.16;;;8.25;100.00
54806;BME280;62866;55.776;37.496;2022-09-25T07:00:30;98193.88;;;8.19;100.00
54806;BME280;62866;55.776;37.496;2022-09-25T07:02:57;98203.28;;;8.15;100.00
54806;BME280;62866;55.776;37.496;2022-09-25T07:05:41;98203.94;;;8.10;100.00
54806;BME280;62866;55.776;37.496;2022-09-25T07:08:11;98209.09;;;7.98;100.00
54806;BME280;62866;55.776;37.496;2022-09-25T07:10:46;98205.00;;;7.96;100.00
54806;BME280;62866;55.776;37.496;2022-09-25T07:13:12;98208.47;;;7.96;100.00
54806;BME280;62866;55.776;37.496;2022-09-25T07:15:37;98217.44;;;8.09;100.00
54806;BME280;62866;55.776;37.496;2022-09-25T07:18:03;98217.63;;;8.14;100.00
54806;BME280;62866;55.776;37.496;2022-09-25T07:20:29;98219.91;;;8.04;100.00
54806;BME280;62866;55.776;37.496;2022-09-25T07:22:58;98223.19;;;8.06;100.00
54806;BME280;62866;55.776;37.496;2022-09-25T07:25:28;98234.84;;;8.11;100.00
54806;BME280;62866;55.776;37.496;2022-09-25T07:27:54;98234.63;;;8.19;99.98
54806;BME280;62866;55.776;37.496;2022-09-25T07:30:19;98230.34;;;8.12;99.85
54806;BME280;62866;55.776;37.496;2022-09-25T07:32:45;98233.59;;;8.14;99.68
54806;BME280;62866;55.776;37.496;2022-09-25T07:35:10;98245.84;;;8.34;99.38
54806;BME280;62866;55.776;37.496;2022-09-25T07:37:36;98246.38;;;8.50;99.40
54806;BME280;62866;55.776;37.496;2022-09-25T07:40:02;98246.94;;;8.58;99.11
54806;BME280;62866;55.776;37.496;2022-09-25T07:42:27;98258.22;;;8.60;99.42
54806;BME280;62866;55.776;37.496;2022-09-25T07:44:54;98262.53;;;8.55;99.07
54806;BME280;62866;55.776;37.496;2022-09-25T07:47:19;98264.44;;;8.41;98.97
54806;BME280;62866;55.776;37.496;2022-09-25T07:49:45;98267.59;;;8.18;98.74
54806;BME280;62866;55.776;37.496;2022-09-25T07:52:11;98265.34;;;8.09;98.82
54806;BME280;62866;55.776;37.496;2022-09-25T07:54:38;98273.38;;;7.95;98.72
54806;BME280;62866;55.776;37.496;2022-09-25T07:57:03;98269.50;;;7.91;98.77
54806;BME280;62866;55.776;37.496;2022-09-25T07:59:29;98274.41;;;8.01;98.96
54806;BME280;62866;55.776;37.496;2022-09-25T08:01:54;98281.72;;;8.12;98.91
54806;BME280;62866;55.776;37.496;2022-09-25T08:04:22;98282.94;;;8.16;99.26
54806;BME280;62866;55.776;37.496;2022-09-25T08:06:47;98285.81;;;8.15;99.28
54806;BME280;62866;55.776;37.496;2022-09-25T08:09:13;98282.09;;;8.22;99.29
54806;BME280;62866;55.776;37.496;2022-09-25T08:11:38;98286.38;;;8.30;99.16
54806;BME280;62866;55.776;37.496;2022-09-25T08:14:04;98296.44;;;8.34;98.86
54806;BME280;62866;55.776;37.496;2022-09-25T08:16:29;98282.31;;;8.34;98.86
54806;BME280;62866;55.776;37.496;2022-09-25T08:18:55;98300.47;;;8.50;99.02
54806;BME280;62866;55.776;37.496;2022-09-25T08:21:20;98301.09;;;8.52;98.69
54806;BME280;62866;55.776;37.496;2022-09-25T08:23:50;98304.78;;;8.51;98.41
54806;BME280;62866;55.776;37.496;2022-09-25T08:26:18;98312.59;;;8.40;98.23
54806;BME280;62866;55.776;37.496;2022-09-25T08:28:45;98317.31;;;8.31;98.35
54806;BME280;62866;55.776;37.496;2022-09-25T08:31:10;98327.78;;;8.19;98.20
54806;BME280;62866;55.776;37.496;2022-09-25T08:33:42;98328.63;;;8.07;97.98
54806;BME280;62866;55.776;37.496;2022-09-25T08:36:08;98331.13;;;7.95;98.13
54806;BME280;62866;55.776;37.496;2022-09-25T08:38:34;98317.44;;;7.78;97.76
54806;BME280;62866;55.776;37.496;2022-09-25T08:41:05;98341.56;;;7.90;98.00
54806;BME280;62866;55.776;37.496;2022-09-25T08:43:39;98351.56;;;7.88;97.68
54806;BME280;62866;55.776;37.496;2022-09-25T08:46:17;98345.25;;;7.82;97.22
54806;BME280;62866;55.776;37.496;2022-09-25T08:49:03;98338.28;;;7.75;97.08
54806;BME280;62866;55.776;37.496;2022-09-25T08:54:02;98359.97;;;7.98;96.97
54806;BME280;62866;55.776;37.496;2022-09-25T08:56:29;98353.44;;;7.94;96.84
54806;BME280;62866;55.776;37.496;2022-09-25T09:01:49;98370.59;;;8.05;96.19
54806;BME280;62866;55.776;37.496;2022-09-25T09:04:35;98367.94;;;8.05;95.96
54806;BME280;62866;55.776;37.496;2022-09-25T09:12:55;98378.78;;;8.36;95.33
54806;BME280;62866;55.776;37.496;2022-09-25T09:15:39;98386.53;;;8.37;95.19
54806;BME280;62866;55.776;37.496;2022-09-25T09:20:52;98386.75;;;8.43;95.29
54806;BME280;62866;55.776;37.496;2022-09-25T09:23:21;98385.84;;;8.68;94.93
54806;BME280;62866;55.776;37.496;2022-09-25T09:25:59;98394.78;;;8.87;94.69
54806;BME280;62866;55.776;37.496;2022-09-25T09:31:38;98409.31;;;8.98;95.46
54806;BME280;62866;55.776;37.496;2022-09-25T09:34:24;98403.78;;;8.93;95.48
54806;BME280;62866;55.776;37.496;2022-09-25T09:40:17;98419.66;;;8.74;95.34
54806;BME280;62866;55.776;37.496;2022-09-25T09:45:21;98421.97;;;8.51;94.95
54806;BME280;62866;55.776;37.496;2022-09-25T09:48:14;98424.63;;;8.51;94.82
54806;BME280;62866;55.776;37.496;2022-09-25T09:50:49;98410.53;;;8.44;95.05
54806;BME280;62866;55.776;37.496;2022-09-25T09:53:32;98429.09;;;8.64;95.10
54806;BME280;62866;55.776;37.496;2022-09-25T09:56:17;98431.94;;;8.75;95.16
54806;BME280;62866;55.776;37.496;2022-09-25T09:58:56;98434.75;;;8.87;94.87
54806;BME280;62866;55.776;37.496;2022-09-25T10:01:25;98431.47;;;8.92;94.65
54806;BME280;62866;55.776;37.496;2022-09-25T10:04:16;98430.44;;;8.93;94.55
54806;BME280;62866;55.776;37.496;2022-09-25T10:06:52;98433.16;;;8.80;94.53
54806;BME280;62866;55.776;37.496;2022-09-25T10:09:19;98438.09;;;8.76;94.31
54806;BME280;62866;55.776;37.496;2022-09-25T10:11:49;98431.09;;;8.82;94.45
54806;BME280;62866;55.776;37.496;2022-09-25T10:14:17;98434.59;;;8.82;94.73
54806;BME280;62866;55.776;37.496;2022-09-25T10:16:47;98439.06;;;8.88;94.85
54806;BME280;62866;55.776;37.496;2022-09-25T10:19:20;98436.97;;;8.97;94.84
54806;BME280;62866;55.776;37.496;2022-09-25T10:22:03;98440.88;;;9.01;94.82
54806;BME280;62866;55.776;37.496;2022-09-25T10:24:59;98448.41;;;9.17;95.03
54806;BME280;62866;55.776;37.496;2022-09-25T10:27:36;98445.31;;;9.13;95.07
54806;BME280;62866;55.776;37.496;2022-09-25T10:32:58;98434.31;;;8.97;95.72
54806;BME280;62866;55.776;37.496;2022-09-25T10:37:52;98457.50;;;9.03;96.47
54806;BME280;62866;55.776;37.496;2022-09-25T10:40:37;98456.72;;;8.83;96.30
54806;BME280;62866;55.776;37.496;2022-09-25T10:45:34;98457.34;;;8.71;96.77
54806;BME280;62866;55.776;37.496;2022-09-25T10:48:00;98464.09;;;8.81;96.45
54806;BME280;62866;55.776;37.496;2022-09-25T10:50:45;98466.13;;;8.92;96.41
54806;BME280;62866;55.776;37.496;2022-09-25T10:53:29;98461.88;;;8.78;96.05
54806;BME280;62866;55.776;37.496;2022-09-25T10:56:05;98466.38;;;8.77;95.50
54806;BME280;62866;55.776;37.496;2022-09-25T10:58:46;98466.59;;;8.75;95.34
54806;BME280;62866;55.776;37.496;2022-09-25T11:01:15;98470.91;;;8.77;95.51
54806;BME280;62866;55.776;37.496;2022-09-25T11:03:56;98481.56;;;8.77;95.26
54806;BME280;62866;55.776;37.496;2022-09-25T11:06:27;98476.22;;;8.77;95.14
54806;BME280;62866;55.776;37.496;2022-09-25T11:11:47;98494.25;;;8.74;94.92
54806;BME280;62866;55.776;37.496;2022-09-25T11:14:47;98486.31;;;8.61;94.84
54806;BME280;62866;55.776;37.496;2022-09-25T11:20:09;98490.38;;;8.77;94.86
54806;BME280;62866;55.776;37.496;2022-09-25T11:22:36;98492.41;;;8.75;94.69
54806;BME280;62866;55.776;37.496;2022-09-25T11:25:16;98495.06;;;8.82;94.76
54806;BME280;62866;55.776;37.496;2022-09-25T11:28:08;98496.94;;;8.74;94.70
54806;BME280;62866;55.776;37.496;2022-09-25T11:30:43;98495.28;;;8.73;94.71
54806;BME280;62866;55.776;37.496;2022-09-25T11:33:24;98503.28;;;8.73;94.66
54806;BME280;62866;55.776;37.496;2022-09-25T11:38:48;98494.91;;;8.57;93.68
54806;BME280;62866;55.776;37.496;2022-09-25T11:49:28;98496.72;;;8.30;92.36
54806;BME280;62866;55.776;37.496;2022-09-25T11:57:57;98517.84;;;8.38;91.65
54806;BME280;62866;55.776;37.496;2022-09-25T12:09:12;98537.06;;;8.14;91.79
54806;BME280;62866;55.776;37.496;2022-09-25T12:20:25;98532.13;;;7.91;92.59
54806;BME280;62866;55.776;37.496;2022-09-25T12:26:08;98534.59;;;7.86;92.93
54806;BME280;62866;55.776;37.496;2022-09-25T12:28:54;98540.53;;;7.94;92.89
54806;BME280;62866;55.776;37.496;2022-09-25T12:31:52;98534.59;;;7.99;92.43
54806;BME280;62866;55.776;37.496;2022-09-25T12:39:58;98551.63;;;8.24;92.25
54806;BME280;62866;55.776;37.496;2022-09-25T12:43:09;98552.66;;;8.30;92.42
54806;BME280;62866;55.776;37.496;2022-09-25T12:45:48;98549.22;;;8.36;91.94
54806;BME280;62866;55.776;37.496;2022-09-25T12:48:38;98542.47;;;8.53;91.47
54806;BME280;62866;55.776;37.496;2022-09-25T12:56:17;98550.63;;;8.85;90.62
54806;BME280;62866;55.776;37.496;2022-09-25T12:59:00;98553.28;;;8.91;90.55
54806;BME280;62866;55.776;37.496;2022-09-25T13:01:55;98547.91;;;9.11;90.81
54806;BME280;62866;55.776;37.496;2022-09-25T13:04:33;98550.31;;;9.26;90.78
54806;BME280;62866;55.776;37.496;2022-09-25T13:07:26;98550.28;;;9.32;90.76
54806;BME280;62866;55.776;37.496;2022-09-25T13:09:53;98545.78;;;9.33;90.78
54806;BME280;62866;55.776;37.496;2022-09-25T13:12:37;98550.66;;;9.42;91.02
54806;BME280;62866;55.776;37.496;2022-09-25T13:15:06;98554.56;;;9.40;91.02
54806;BME280;62866;55.776;37.496;2022-09-25T13:17:35;98555.41;;;9.34;90.92
54806;BME280;62866;55.776;37.496;2022-09-25T13:23:04;98557.91;;;9.22;90.64
54806;BME280;62866;55.776;37.496;2022-09-25T13:25:40;98559.78;;;9.15;90.68
54806;BME280;62866;55.776;37.496;2022-09-25T13:28:08;98565.97;;;9.02;90.40
54806;BME280;62866;55.776;37.496;2022-09-25T13:30:59;98561.69;;;8.95;90.45
54806;BME280;62866;55.776;37.496;2022-09-25T13:33:26;98556.97;;;8.84;90.77
54806;BME280;62866;55.776;37.496;2022-09-25T13:36:18;98563.13;;;8.91;90.76
54806;BME280;62866;55.776;37.496;2022-09-25T13:38:57;98560.25;;;8.92;90.46
54806;BME280;62866;55.776;37.496;2022-09-25T13:42:27;98570.28;;;8.97;90.36
54806;BME280;62866;55.776;37.496;2022-09-25T14:00:23;98588.28;;;9.28;91.10
54806;BME280;62866;55.776;37.496;2022-09-25T14:02:52;98587.00;;;9.30;91.52
54806;BME280;62866;55.776;37.496;2022-09-25T14:05:26;98592.97;;;9.32;91.29
54806;BME280;62866;55.776;37.496;2022-09-25T14:08:11;98589.28;;;9.27;91.37
54806;BME280;62866;55.776;37.496;2022-09-25T14:10:46;98572.72;;;9.11;91.69
54806;BME280;62866;55.776;37.496;2022-09-25T14:13:16;98599.16;;;9.26;91.66
54806;BME280;62866;55.776;37.496;2022-09-25T14:15:43;98587.84;;;9.24;91.89
54806;BME280;62866;55.776;37.496;2022-09-25T14:18:40;98594.19;;;9.30;91.91
54806;BME280;62866;55.776;37.496;2022-09-25T14:21:10;98591.53;;;9.30;91.70
54806;BME280;62866;55.776;37.496;2022-09-25T14:23:50;98606.13;;;9.27;91.70
54806;BME280;62866;55.776;37.496;2022-09-25T14:26:20;98603.25;;;9.22;91.78
54806;BME280;62866;55.776;37.496;2022-09-25T14:28:48;98602.25;;;9.17;92.14
54806;BME280;62866;55.776;37.496;2022-09-25T14:42:25;98610.22;;;9.23;92.30
54806;BME280;62866;55.776;37.496;2022-09-25T14:47:32;98620.91;;;9.10;92.28
54806;BME280;62866;55.776;37.496;2022-09-25T14:49:59;98618.88;;;9.05;92.18
54806;BME280;62866;55.776;37.496;2022-09-25T14:52:27;98624.63;;;9.02;92.23
54806;BME280;62866;55.776;37.496;2022-09-25T14:54:55;98625.66;;;9.01;92.34
54806;BME280;62866;55.776;37.496;2022-09-25T14:57:27;98624.19;;;9.05;92.53
54806;BME280;62866;55.776;37.496;2022-09-25T14:59:59;98624.19;;;9.05;92.39
54806;BME280;62866;55.776;37.496;2022-09-25T15:02:36;98627.69;;;9.06;92.25
54806;BME280;62866;55.776;37.496;2022-09-25T15:07:47;98640.19;;;9.05;92.42
54806;BME280;62866;55.776;37.496;2022-09-25T15:10:39;98636.31;;;9.01;92.53
54806;BME280;62866;55.776;37.496;2022-09-25T15:13:15;98634.88;;;8.99;92.39
54806;BME280;62866;55.776;37.496;2022-09-25T15:15:54;98649.03;;;8.99;92.37
54806;BME280;62866;55.776;37.496;2022-09-25T15:18:42;98644.72;;;8.98;92.51
54806;BME280;62866;55.776;37.496;2022-09-25T15:21:15;98647.38;;;8.92;92.04
54806;BME280;62866;55.776;37.496;2022-09-25T15:23:43;98644.75;;;8.79;91.82
54806;BME280;62866;55.776;37.496;2022-09-25T15:26:18;98639.38;;;8.65;91.62
54806;BME280;62866;55.776;37.496;2022-09-25T15:28:44;98648.81;;;8.68;91.98
54806;BME280;62866;55.776;37.496;2022-09-25T15:31:10;98648.63;;;8.69;92.02
54806;BME280;62866;55.776;37.496;2022-09-25T15:33:37;98651.88;;;8.71;91.98
54806;BME280;62866;55.776;37.496;2022-09-25T15:36:24;98643.88;;;8.71;91.86
54806;BME280;62866;55.776;37.496;2022-09-25T15:38:54;98658.66;;;8.81;91.90
54806;BME280;62866;55.776;37.496;2022-09-25T15:41:21;98658.88;;;8.86;91.78